sensor_id;sensor_type;location;lat;lon;timestamp;P1;durP1;ratioP1;P2;durP2;ratioP2
85461;SDS011;75865;42.672;23.360;2024-01-27T00:00:19;3.53;;;1.50;;
85461;SDS011;75865;42.672;23.360;2024-01-27T00:02:46;2.95;;;1.80;;
85461;SDS011;75865;42.672;23.360;2024-01-27T00:05:13;7.50;;;2.20;;
85461;SDS011;75865;42.672;23.360;2024-01-27T00:07:40;5.53;;;1.60;;
85461;SDS011;75865;42.672;23.360;2024-01-27T00:10:07;5.18;;;1.70;;
85461;SDS011;75865;42.672;23.360;2024-01-27T00:12:34;3.97;;;1.60;;
85461;SDS011;75865;42.672;23.360;2024-01-27T00:15:00;4.53;;;2.00;;
85461;SDS011;75865;42.672;23.360;2024-01-27T00:17:27;4.00;;;2.00;;
85461;SDS011;75865;42.672;23.360;2024-01-27T00:19:54;4.10;;;1.70;;
85461;SDS011;75865;42.672;23.360;2024-01-27T00:22:21;2.55;;;1.30;;
85461;SDS011;75865;42.672;23.360;2024-01-27T00:24:48;8.02;;;1.70;;
85461;SDS011;75865;42.672;23.360;2024-01-27T00:27:15;7.25;;;1.73;;
85461;SDS011;75865;42.672;23.360;2024-01-27T00:29:42;3.30;;;1.52;;
85461;SDS011;75865;42.672;23.360;2024-01-27T00:32:09;2.72;;;1.70;;
85461;SDS011;75865;42.672;23.360;2024-01-27T00:34:36;4.28;;;1.60;;
85461;SDS011;75865;42.672;23.360;2024-01-27T00:37:03;4.32;;;1.38;;
85461;SDS011;75865;42.672;23.360;2024-01-27T00:39:31;4.78;;;1.30;;
85461;SDS011;75865;42.672;23.360;2024-01-27T00:41:58;2.67;;;1.55;;
85461;SDS011;75865;42.672;23.360;2024-01-27T00:44:25;4.03;;;1.67;;
85461;SDS011;75865;42.672;23.360;2024-01-27T00:46:52;8.48;;;1.52;;
85461;SDS011;75865;42.672;23.360;2024-01-27T00:49:19;5.22;;;1.38;;
85461;SDS011;75865;42.672;23.360;2024-01-27T00:51:47;5.32;;;1.60;;
85461;SDS011;75865;42.672;23.360;2024-01-27T00:54:14;6.70;;;2.00;;
85461;SDS011;75865;42.672;23.360;2024-01-27T00:56:40;4.30;;;1.60;;
85461;SDS011;75865;42.672;23.360;2024-01-27T00:59:07;4.45;;;1.70;;
85461;SDS011;75865;42.672;23.360;2024-01-27T01:01:34;1.95;;;1.58;;
85461;SDS011;75865;42.672;23.360;2024-01-27T01:04:01;1.65;;;1.40;;
85461;SDS011;75865;42.672;23.360;2024-01-27T01:06:27;3.85;;;1.33;;
85461;SDS011;75865;42.672;23.360;2024-01-27T01:08:54;4.28;;;1.70;;
85461;SDS011;75865;42.672;23.360;2024-01-27T01:11:21;5.22;;;1.85;;
85461;SDS011;75865;42.672;23.360;2024-01-27T01:13:48;7.97;;;1.98;;
85461;SDS011;75865;42.672;23.360;2024-01-27T01:16:15;4.50;;;1.95;;
85461;SDS011;75865;42.672;23.360;2024-01-27T01:18:41;2.30;;;1.30;;
85461;SDS011;75865;42.672;23.360;2024-01-27T01:21:08;7.05;;;1.80;;
85461;SDS011;75865;42.672;23.360;2024-01-27T01:23:35;8.07;;;2.35;;
85461;SDS011;75865;42.672;23.360;2024-01-27T01:26:02;3.78;;;1.42;;
85461;SDS011;75865;42.672;23.360;2024-01-27T01:28:29;4.05;;;1.40;;
85461;SDS011;75865;42.672;23.360;2024-01-27T01:30:56;6.00;;;1.45;;
85461;SDS011;75865;42.672;23.360;2024-01-27T01:33:22;6.25;;;1.60;;
85461;SDS011;75865;42.672;23.360;2024-01-27T01:35:49;4.68;;;1.73;;
85461;SDS011;75865;42.672;23.360;2024-01-27T01:38:16;7.38;;;2.00;;
85461;SDS011;75865;42.672;23.360;2024-01-27T01:40:43;6.20;;;1.80;;
85461;SDS011;75865;42.672;23.360;2024-01-27T01:43:10;2.20;;;1.48;;
85461;SDS011;75865;42.672;23.360;2024-01-27T01:45:38;2.78;;;1.60;;
85461;SDS011;75865;42.672;23.360;2024-01-27T01:48:05;6.95;;;1.75;;
85461;SDS011;75865;42.672;23.360;2024-01-27T01:50:34;6.30;;;1.83;;
85461;SDS011;75865;42.672;23.360;2024-01-27T01:53:00;5.90;;;1.90;;
85461;SDS011;75865;42.672;23.360;2024-01-27T01:55:28;2.80;;;1.42;;
85461;SDS011;75865;42.672;23.360;2024-01-27T01:57:54;3.75;;;1.52;;
85461;SDS011;75865;42.672;23.360;2024-01-27T02:00:21;5.80;;;1.70;;
85461;SDS011;75865;42.672;23.360;2024-01-27T02:02:48;5.10;;;1.75;;
85461;SDS011;75865;42.672;23.360;2024-01-27T02:05:15;3.45;;;1.58;;
85461;SDS011;75865;42.672;23.360;2024-01-27T02:07:42;4.05;;;1.45;;
85461;SDS011;75865;42.672;23.360;2024-01-27T02:10:13;3.55;;;1.50;;
85461;SDS011;75865;42.672;23.360;2024-01-27T02:12:44;6.75;;;1.77;;
85461;SDS011;75865;42.672;23.360;2024-01-27T02:15:11;7.38;;;1.95;;
85461;SDS011;75865;42.672;23.360;2024-01-27T02:17:39;5.03;;;1.42;;
85461;SDS011;75865;42.672;23.360;2024-01-27T02:20:07;6.85;;;1.95;;
85461;SDS011;75865;42.672;23.360;2024-01-27T02:22:34;4.25;;;1.83;;
85461;SDS011;75865;42.672;23.360;2024-01-27T02:25:02;5.45;;;1.75;;
85461;SDS011;75865;42.672;23.360;2024-01-27T02:27:29;6.00;;;2.22;;
85461;SDS011;75865;42.672;23.360;2024-01-27T02:29:57;5.72;;;1.83;;
85461;SDS011;75865;42.672;23.360;2024-01-27T02:32:23;6.15;;;1.77;;
85461;SDS011;75865;42.672;23.360;2024-01-27T02:34:50;4.90;;;1.60;;
85461;SDS011;75865;42.672;23.360;2024-01-27T02:37:17;4.20;;;1.60;;
85461;SDS011;75865;42.672;23.360;2024-01-27T02:39:44;7.13;;;2.22;;
85461;SDS011;75865;42.672;23.360;2024-01-27T02:42:11;2.53;;;1.52;;
85461;SDS011;75865;42.672;23.360;2024-01-27T02:44:38;5.20;;;2.03;;
85461;SDS011;75865;42.672;23.360;2024-01-27T02:47:05;4.75;;;1.48;;
85461;SDS011;75865;42.672;23.360;2024-01-27T02:49:31;4.70;;;1.70;;
85461;SDS011;75865;42.672;23.360;2024-01-27T02:51:59;7.43;;;1.83;;
85461;SDS011;75865;42.672;23.360;2024-01-27T02:54:26;7.15;;;1.90;;
85461;SDS011;75865;42.672;23.360;2024-01-27T02:56:53;6.45;;;2.50;;
85461;SDS011;75865;42.672;23.360;2024-01-27T02:59:20;10.60;;;3.38;;
85461;SDS011;75865;42.672;23.360;2024-01-27T03:01:47;8.43;;;3.42;;
85461;SDS011;75865;42.672;23.360;2024-01-27T03:04:14;5.93;;;3.50;;
85461;SDS011;75865;42.672;23.360;2024-01-27T03:06:41;11.45;;;4.15;;
85461;SDS011;75865;42.672;23.360;2024-01-27T03:09:08;9.50;;;3.80;;
85461;SDS011;75865;42.672;23.360;2024-01-27T03:11:36;9.15;;;3.90;;
85461;SDS011;75865;42.672;23.360;2024-01-27T03:14:03;8.93;;;4.05;;
85461;SDS011;75865;42.672;23.360;2024-01-27T03:16:30;6.05;;;3.70;;
85461;SDS011;75865;42.672;23.360;2024-01-27T03:18:57;8.93;;;3.72;;
85461;SDS011;75865;42.672;23.360;2024-01-27T03:21:25;7.07;;;3.30;;
85461;SDS011;75865;42.672;23.360;2024-01-27T03:23:51;12.48;;;3.47;;
85461;SDS011;75865;42.672;23.360;2024-01-27T03:26:18;10.38;;;3.65;;
85461;SDS011;75865;42.672;23.360;2024-01-27T03:28:45;6.68;;;3.00;;
85461;SDS011;75865;42.672;23.360;2024-01-27T03:31:12;5.50;;;1.73;;
85461;SDS011;75865;42.672;23.360;2024-01-27T03:33:39;3.03;;;1.25;;
85461;SDS011;75865;42.672;23.360;2024-01-27T03:36:09;5.25;;;1.15;;
85461;SDS011;75865;42.672;23.360;2024-01-27T03:38:38;2.08;;;1.08;;
85461;SDS011;75865;42.672;23.360;2024-01-27T03:41:05;2.35;;;1.20;;
85461;SDS011;75865;42.672;23.360;2024-01-27T03:43:35;4.95;;;1.27;;
85461;SDS011;75865;42.672;23.360;2024-01-27T03:46:02;2.80;;;1.20;;
85461;SDS011;75865;42.672;23.360;2024-01-27T03:48:29;4.68;;;1.23;;
85461;SDS011;75865;42.672;23.360;2024-01-27T03:50:59;1.95;;;1.20;;
85461;SDS011;75865;42.672;23.360;2024-01-27T03:53:25;2.08;;;1.10;;
85461;SDS011;75865;42.672;23.360;2024-01-27T03:55:52;3.17;;;1.20;;
85461;SDS011;75865;42.672;23.360;2024-01-27T03:58:20;2.72;;;1.63;;
85461;SDS011;75865;42.672;23.360;2024-01-27T04:00:47;2.80;;;1.10;;
85461;SDS011;75865;42.672;23.360;2024-01-27T04:03:13;2.40;;;1.02;;
85461;SDS011;75865;42.672;23.360;2024-01-27T04:05:41;2.15;;;1.17;;
85461;SDS011;75865;42.672;23.360;2024-01-27T04:08:08;1.70;;;1.10;;
85461;SDS011;75865;42.672;23.360;2024-01-27T04:10:36;2.60;;;0.95;;
85461;SDS011;75865;42.672;23.360;2024-01-27T04:13:03;4.00;;;1.45;;
85461;SDS011;75865;42.672;23.360;2024-01-27T04:15:30;3.83;;;1.33;;
85461;SDS011;75865;42.672;23.360;2024-01-27T04:17:59;4.20;;;1.50;;
85461;SDS011;75865;42.672;23.360;2024-01-27T04:20:26;5.05;;;1.92;;
85461;SDS011;75865;42.672;23.360;2024-01-27T04:22:52;2.50;;;1.08;;
85461;SDS011;75865;42.672;23.360;2024-01-27T04:25:19;7.53;;;1.58;;
85461;SDS011;75865;42.672;23.360;2024-01-27T04:27:46;8.75;;;1.60;;
85461;SDS011;75865;42.672;23.360;2024-01-27T04:30:13;2.05;;;0.88;;
85461;SDS011;75865;42.672;23.360;2024-01-27T04:32:40;2.55;;;1.08;;
85461;SDS011;75865;42.672;23.360;2024-01-27T04:35:09;1.73;;;1.15;;
85461;SDS011;75865;42.672;23.360;2024-01-27T04:37:37;4.15;;;1.27;;
85461;SDS011;75865;42.672;23.360;2024-01-27T04:40:05;2.05;;;0.98;;
85461;SDS011;75865;42.672;23.360;2024-01-27T04:42:35;5.00;;;1.35;;
85461;SDS011;75865;42.672;23.360;2024-01-27T04:45:04;2.70;;;1.20;;
85461;SDS011;75865;42.672;23.360;2024-01-27T04:47:32;1.25;;;1.00;;
85461;SDS011;75865;42.672;23.360;2024-01-27T04:49:59;2.08;;;1.15;;
85461;SDS011;75865;42.672;23.360;2024-01-27T04:52:26;3.08;;;1.33;;
85461;SDS011;75865;42.672;23.360;2024-01-27T04:54:54;1.77;;;1.20;;
85461;SDS011;75865;42.672;23.360;2024-01-27T04:57:20;4.28;;;1.70;;
85461;SDS011;75865;42.672;23.360;2024-01-27T04:59:47;4.47;;;1.38;;
85461;SDS011;75865;42.672;23.360;2024-01-27T05:02:14;4.40;;;1.58;;
85461;SDS011;75865;42.672;23.360;2024-01-27T05:04:41;3.78;;;1.40;;
85461;SDS011;75865;42.672;23.360;2024-01-27T05:07:08;3.70;;;1.55;;
85461;SDS011;75865;42.672;23.360;2024-01-27T05:09:35;3.90;;;1.63;;
85461;SDS011;75865;42.672;23.360;2024-01-27T05:12:02;7.22;;;1.52;;
85461;SDS011;75865;42.672;23.360;2024-01-27T05:14:29;3.92;;;1.40;;
85461;SDS011;75865;42.672;23.360;2024-01-27T05:16:56;3.17;;;1.20;;
85461;SDS011;75865;42.672;23.360;2024-01-27T05:19:23;3.20;;;1.38;;
85461;SDS011;75865;42.672;23.360;2024-01-27T05:21:49;6.40;;;1.52;;
85461;SDS011;75865;42.672;23.360;2024-01-27T05:24:16;3.03;;;1.60;;
85461;SDS011;75865;42.672;23.360;2024-01-27T05:26:43;5.85;;;1.10;;
85461;SDS011;75865;42.672;23.360;2024-01-27T05:29:10;4.65;;;1.85;;
85461;SDS011;75865;42.672;23.360;2024-01-27T05:31:37;2.95;;;1.30;;
85461;SDS011;75865;42.672;23.360;2024-01-27T05:34:03;2.50;;;1.40;;
85461;SDS011;75865;42.672;23.360;2024-01-27T05:36:31;2.85;;;1.50;;
85461;SDS011;75865;42.672;23.360;2024-01-27T05:38:58;3.78;;;1.40;;
85461;SDS011;75865;42.672;23.360;2024-01-27T05:41:25;4.05;;;1.50;;
85461;SDS011;75865;42.672;23.360;2024-01-27T05:43:55;2.38;;;1.20;;
85461;SDS011;75865;42.672;23.360;2024-01-27T05:46:25;2.58;;;1.23;;
85461;SDS011;75865;42.672;23.360;2024-01-27T05:48:52;1.67;;;1.20;;
85461;SDS011;75865;42.672;23.360;2024-01-27T05:51:21;4.20;;;1.23;;
85461;SDS011;75865;42.672;23.360;2024-01-27T05:53:49;2.85;;;1.38;;
85461;SDS011;75865;42.672;23.360;2024-01-27T05:56:16;3.65;;;1.73;;
85461;SDS011;75865;42.672;23.360;2024-01-27T05:58:52;7.40;;;1.60;;
85461;SDS011;75865;42.672;23.360;2024-01-27T06:01:18;4.47;;;2.00;;
85461;SDS011;75865;42.672;23.360;2024-01-27T06:03:46;5.10;;;1.67;;
85461;SDS011;75865;42.672;23.360;2024-01-27T06:06:13;4.00;;;2.30;;
85461;SDS011;75865;42.672;23.360;2024-01-27T06:08:40;4.05;;;2.05;;
85461;SDS011;75865;42.672;23.360;2024-01-27T06:11:07;6.82;;;1.98;;
85461;SDS011;75865;42.672;23.360;2024-01-27T06:13:36;5.72;;;2.42;;
85461;SDS011;75865;42.672;23.360;2024-01-27T06:16:08;9.43;;;2.53;;
85461;SDS011;75865;42.672;23.360;2024-01-27T06:18:35;5.25;;;3.00;;
85461;SDS011;75865;42.672;23.360;2024-01-27T06:21:05;4.00;;;2.28;;
85461;SDS011;75865;42.672;23.360;2024-01-27T06:23:33;7.00;;;3.00;;
85461;SDS011;75865;42.672;23.360;2024-01-27T06:26:03;5.13;;;2.42;;
85461;SDS011;75865;42.672;23.360;2024-01-27T06:28:31;6.88;;;2.28;;
85461;SDS011;75865;42.672;23.360;2024-01-27T06:30:58;9.18;;;3.10;;
85461;SDS011;75865;42.672;23.360;2024-01-27T06:33:25;16.52;;;2.95;;
85461;SDS011;75865;42.672;23.360;2024-01-27T06:35:52;7.07;;;2.78;;
85461;SDS011;75865;42.672;23.360;2024-01-27T06:38:19;8.35;;;2.88;;
85461;SDS011;75865;42.672;23.360;2024-01-27T06:40:45;5.90;;;2.63;;
85461;SDS011;75865;42.672;23.360;2024-01-27T06:43:12;4.20;;;2.55;;
85461;SDS011;75865;42.672;23.360;2024-01-27T06:45:40;4.57;;;1.90;;
85461;SDS011;75865;42.672;23.360;2024-01-27T06:48:07;2.70;;;1.70;;
85461;SDS011;75865;42.672;23.360;2024-01-27T06:50:35;2.97;;;1.33;;
85461;SDS011;75865;42.672;23.360;2024-01-27T06:53:01;2.47;;;0.90;;
85461;SDS011;75865;42.672;23.360;2024-01-27T06:55:28;2.92;;;1.20;;
85461;SDS011;75865;42.672;23.360;2024-01-27T06:57:55;1.70;;;0.80;;
85461;SDS011;75865;42.672;23.360;2024-01-27T07:00:22;1.30;;;0.80;;
85461;SDS011;75865;42.672;23.360;2024-01-27T07:02:49;3.45;;;0.70;;
85461;SDS011;75865;42.672;23.360;2024-01-27T07:05:16;1.92;;;0.88;;
85461;SDS011;75865;42.672;23.360;2024-01-27T07:07:43;2.38;;;0.70;;
85461;SDS011;75865;42.672;23.360;2024-01-27T07:10:10;0.30;;;0.30;;
85461;SDS011;75865;42.672;23.360;2024-01-27T07:12:37;2.03;;;0.57;;
85461;SDS011;75865;42.672;23.360;2024-01-27T07:15:03;1.38;;;0.60;;
85461;SDS011;75865;42.672;23.360;2024-01-27T07:17:30;1.00;;;0.70;;
85461;SDS011;75865;42.672;23.360;2024-01-27T07:19:57;1.00;;;0.70;;
85461;SDS011;75865;42.672;23.360;2024-01-27T07:22:24;0.90;;;0.55;;
85461;SDS011;75865;42.672;23.360;2024-01-27T07:24:51;0.60;;;0.40;;
85461;SDS011;75865;42.672;23.360;2024-01-27T07:27:18;1.55;;;0.70;;
85461;SDS011;75865;42.672;23.360;2024-01-27T07:29:45;1.27;;;0.60;;
85461;SDS011;75865;42.672;23.360;2024-01-27T07:32:12;1.13;;;0.80;;
85461;SDS011;75865;42.672;23.360;2024-01-27T07:34:42;1.35;;;0.85;;
85461;SDS011;75865;42.672;23.360;2024-01-27T07:37:10;1.42;;;1.10;;
85461;SDS011;75865;42.672;23.360;2024-01-27T07:39:37;1.15;;;0.80;;
85461;SDS011;75865;42.672;23.360;2024-01-27T07:42:04;1.50;;;0.88;;
85461;SDS011;75865;42.672;23.360;2024-01-27T07:44:31;2.30;;;1.25;;
85461;SDS011;75865;42.672;23.360;2024-01-27T07:46:58;3.78;;;1.00;;
85461;SDS011;75865;42.672;23.360;2024-01-27T07:49:25;3.05;;;0.93;;
85461;SDS011;75865;42.672;23.360;2024-01-27T07:51:53;2.03;;;1.10;;
85461;SDS011;75865;42.672;23.360;2024-01-27T07:54:21;2.85;;;1.10;;
85461;SDS011;75865;42.672;23.360;2024-01-27T07:56:49;1.55;;;1.30;;
85461;SDS011;75865;42.672;23.360;2024-01-27T07:59:16;1.63;;;1.02;;
85461;SDS011;75865;42.672;23.360;2024-01-27T08:01:42;3.13;;;1.65;;
85461;SDS011;75865;42.672;23.360;2024-01-27T08:04:10;1.98;;;1.15;;
85461;SDS011;75865;42.672;23.360;2024-01-27T08:06:46;3.97;;;1.85;;
85461;SDS011;75865;42.672;23.360;2024-01-27T08:09:16;1.70;;;1.08;;
85461;SDS011;75865;42.672;23.360;2024-01-27T08:11:43;2.42;;;1.70;;
85461;SDS011;75865;42.672;23.360;2024-01-27T08:14:10;2.65;;;1.45;;
85461;SDS011;75865;42.672;23.360;2024-01-27T08:16:37;2.00;;;1.17;;
85461;SDS011;75865;42.672;23.360;2024-01-27T08:19:04;2.95;;;1.70;;
85461;SDS011;75865;42.672;23.360;2024-01-27T08:21:31;3.80;;;1.58;;
85461;SDS011;75865;42.672;23.360;2024-01-27T08:23:58;1.55;;;1.00;;
85461;SDS011;75865;42.672;23.360;2024-01-27T08:26:25;2.42;;;1.60;;
85461;SDS011;75865;42.672;23.360;2024-01-27T08:28:52;3.70;;;1.63;;
85461;SDS011;75865;42.672;23.360;2024-01-27T08:31:22;4.40;;;1.70;;
85461;SDS011;75865;42.672;23.360;2024-01-27T08:33:49;2.78;;;1.48;;
85461;SDS011;75865;42.672;23.360;2024-01-27T08:36:16;3.75;;;2.08;;
85461;SDS011;75865;42.672;23.360;2024-01-27T08:38:43;2.08;;;1.50;;
85461;SDS011;75865;42.672;23.360;2024-01-27T08:41:10;3.38;;;1.17;;
85461;SDS011;75865;42.672;23.360;2024-01-27T08:43:37;2.88;;;1.80;;
85461;SDS011;75865;42.672;23.360;2024-01-27T08:46:04;2.78;;;1.80;;
85461;SDS011;75865;42.672;23.360;2024-01-27T08:48:31;2.15;;;1.38;;
85461;SDS011;75865;42.672;23.360;2024-01-27T08:50:58;3.17;;;1.67;;
85461;SDS011;75865;42.672;23.360;2024-01-27T08:53:25;2.35;;;1.55;;
85461;SDS011;75865;42.672;23.360;2024-01-27T08:55:52;1.90;;;1.40;;
85461;SDS011;75865;42.672;23.360;2024-01-27T08:58:19;1.88;;;1.55;;
85461;SDS011;75865;42.672;23.360;2024-01-27T09:00:46;2.88;;;1.52;;
85461;SDS011;75865;42.672;23.360;2024-01-27T09:03:13;2.67;;;1.40;;
85461;SDS011;75865;42.672;23.360;2024-01-27T09:05:40;1.98;;;1.33;;
85461;SDS011;75865;42.672;23.360;2024-01-27T09:08:10;2.13;;;1.20;;
85461;SDS011;75865;42.672;23.360;2024-01-27T09:10:37;1.98;;;1.40;;
85461;SDS011;75865;42.672;23.360;2024-01-27T09:13:04;1.88;;;1.20;;
85461;SDS011;75865;42.672;23.360;2024-01-27T09:15:33;1.30;;;1.20;;
85461;SDS011;75865;42.672;23.360;2024-01-27T09:18:00;2.10;;;1.40;;
85461;SDS011;75865;42.672;23.360;2024-01-27T09:20:27;3.60;;;1.60;;
85461;SDS011;75865;42.672;23.360;2024-01-27T09:22:54;1.40;;;1.20;;
85461;SDS011;75865;42.672;23.360;2024-01-27T09:25:20;1.92;;;1.25;;
85461;SDS011;75865;42.672;23.360;2024-01-27T09:27:47;1.67;;;1.20;;
85461;SDS011;75865;42.672;23.360;2024-01-27T09:30:14;2.72;;;1.15;;
85461;SDS011;75865;42.672;23.360;2024-01-27T09:32:41;1.95;;;1.55;;
85461;SDS011;75865;42.672;23.360;2024-01-27T09:35:08;2.45;;;1.30;;
85461;SDS011;75865;42.672;23.360;2024-01-27T09:37:35;1.00;;;0.80;;
85461;SDS011;75865;42.672;23.360;2024-01-27T09:40:02;1.65;;;1.13;;
85461;SDS011;75865;42.672;23.360;2024-01-27T09:42:30;2.42;;;1.08;;
85461;SDS011;75865;42.672;23.360;2024-01-27T09:45:01;2.30;;;1.30;;
85461;SDS011;75865;42.672;23.360;2024-01-27T09:47:29;2.20;;;1.30;;
85461;SDS011;75865;42.672;23.360;2024-01-27T09:49:56;2.28;;;1.00;;
85461;SDS011;75865;42.672;23.360;2024-01-27T09:52:24;1.15;;;1.05;;
85461;SDS011;75865;42.672;23.360;2024-01-27T09:54:51;2.03;;;1.35;;
85461;SDS011;75865;42.672;23.360;2024-01-27T09:57:20;1.20;;;1.00;;
85461;SDS011;75865;42.672;23.360;2024-01-27T09:59:47;1.10;;;1.00;;
85461;SDS011;75865;42.672;23.360;2024-01-27T10:02:15;2.28;;;1.48;;
85461;SDS011;75865;42.672;23.360;2024-01-27T10:04:47;2.40;;;1.30;;
85461;SDS011;75865;42.672;23.360;2024-01-27T10:07:15;2.78;;;1.10;;
85461;SDS011;75865;42.672;23.360;2024-01-27T10:09:42;3.15;;;1.00;;
85461;SDS011;75865;42.672;23.360;2024-01-27T10:12:09;2.00;;;0.90;;
85461;SDS011;75865;42.672;23.360;2024-01-27T10:17:10;3.78;;;1.10;;
85461;SDS011;75865;42.672;23.360;2024-01-27T10:19:37;1.02;;;0.90;;
85461;SDS011;75865;42.672;23.360;2024-01-27T10:22:10;2.47;;;1.52;;
85461;SDS011;75865;42.672;23.360;2024-01-27T10:24:37;1.25;;;1.00;;
85461;SDS011;75865;42.672;23.360;2024-01-27T10:27:04;1.80;;;1.10;;
85461;SDS011;75865;42.672;23.360;2024-01-27T10:29:31;1.38;;;1.13;;
85461;SDS011;75865;42.672;23.360;2024-01-27T10:32:09;1.27;;;1.17;;
85461;SDS011;75865;42.672;23.360;2024-01-27T10:34:37;1.13;;;1.00;;
85461;SDS011;75865;42.672;23.360;2024-01-27T10:37:04;2.08;;;1.08;;
85461;SDS011;75865;42.672;23.360;2024-01-27T10:39:31;1.55;;;1.10;;
85461;SDS011;75865;42.672;23.360;2024-01-27T10:41:58;1.95;;;1.05;;
85461;SDS011;75865;42.672;23.360;2024-01-27T10:44:30;1.30;;;1.00;;
85461;SDS011;75865;42.672;23.360;2024-01-27T10:46:59;0.90;;;0.82;;
85461;SDS011;75865;42.672;23.360;2024-01-27T10:49:29;1.83;;;1.10;;
85461;SDS011;75865;42.672;23.360;2024-01-27T10:52:01;1.48;;;1.10;;
85461;SDS011;75865;42.672;23.360;2024-01-27T10:54:37;1.65;;;1.10;;
85461;SDS011;75865;42.672;23.360;2024-01-27T10:57:08;1.67;;;1.30;;
85461;SDS011;75865;42.672;23.360;2024-01-27T10:59:36;2.67;;;2.17;;
85461;SDS011;75865;42.672;23.360;2024-01-27T11:02:05;1.70;;;1.10;;
85461;SDS011;75865;42.672;23.360;2024-01-27T11:04:39;1.40;;;1.30;;
85461;SDS011;75865;42.672;23.360;2024-01-27T11:07:08;1.80;;;1.17;;
85461;SDS011;75865;42.672;23.360;2024-01-27T11:09:35;2.42;;;1.08;;
85461;SDS011;75865;42.672;23.360;2024-01-27T11:12:03;1.65;;;1.05;;
85461;SDS011;75865;42.672;23.360;2024-01-27T11:14:31;1.70;;;1.05;;
85461;SDS011;75865;42.672;23.360;2024-01-27T11:16:58;1.77;;;1.20;;
85461;SDS011;75865;42.672;23.360;2024-01-27T11:19:25;1.17;;;1.02;;
85461;SDS011;75865;42.672;23.360;2024-01-27T11:22:00;1.25;;;1.00;;
85461;SDS011;75865;42.672;23.360;2024-01-27T11:24:28;1.42;;;1.20;;
85461;SDS011;75865;42.672;23.360;2024-01-27T11:27:04;5.53;;;1.70;;
85461;SDS011;75865;42.672;23.360;2024-01-27T11:29:33;1.63;;;1.10;;
85461;SDS011;75865;42.672;23.360;2024-01-27T11:32:03;1.63;;;1.48;;
85461;SDS011;75865;42.672;23.360;2024-01-27T11:34:45;0.90;;;0.80;;
85461;SDS011;75865;42.672;23.360;2024-01-27T11:37:13;2.33;;;1.33;;
85461;SDS011;75865;42.672;23.360;2024-01-27T11:39:42;1.27;;;1.13;;
85461;SDS011;75865;42.672;23.360;2024-01-27T11:42:09;1.52;;;1.30;;
85461;SDS011;75865;42.672;23.360;2024-01-27T11:44:40;2.95;;;1.90;;
85461;SDS011;75865;42.672;23.360;2024-01-27T11:47:17;2.20;;;1.17;;
85461;SDS011;75865;42.672;23.360;2024-01-27T11:49:51;3.17;;;1.33;;
85461;SDS011;75865;42.672;23.360;2024-01-27T11:52:21;2.30;;;1.20;;
85461;SDS011;75865;42.672;23.360;2024-01-27T11:54:56;2.88;;;1.52;;
85461;SDS011;75865;42.672;23.360;2024-01-27T11:57:23;5.40;;;1.70;;
85461;SDS011;75865;42.672;23.360;2024-01-27T11:59:51;2.10;;;1.50;;
85461;SDS011;75865;42.672;23.360;2024-01-27T12:02:21;2.40;;;1.52;;
85461;SDS011;75865;42.672;23.360;2024-01-27T12:04:48;6.80;;;4.13;;
85461;SDS011;75865;42.672;23.360;2024-01-27T12:07:16;3.35;;;1.90;;
85461;SDS011;75865;42.672;23.360;2024-01-27T12:09:49;3.13;;;1.48;;
85461;SDS011;75865;42.672;23.360;2024-01-27T12:14:50;1.45;;;1.08;;
85461;SDS011;75865;42.672;23.360;2024-01-27T12:17:18;2.50;;;1.40;;
85461;SDS011;75865;42.672;23.360;2024-01-27T12:19:50;1.40;;;1.20;;
85461;SDS011;75865;42.672;23.360;2024-01-27T12:22:24;2.17;;;1.42;;
85461;SDS011;75865;42.672;23.360;2024-01-27T12:24:55;4.38;;;1.77;;
85461;SDS011;75865;42.672;23.360;2024-01-27T12:27:23;1.95;;;1.05;;
85461;SDS011;75865;42.672;23.360;2024-01-27T12:29:50;2.03;;;1.42;;
85461;SDS011;75865;42.672;23.360;2024-01-27T12:32:17;2.05;;;1.20;;
85461;SDS011;75865;42.672;23.360;2024-01-27T12:34:44;2.05;;;1.50;;
85461;SDS011;75865;42.672;23.360;2024-01-27T12:37:16;1.60;;;1.50;;
85461;SDS011;75865;42.672;23.360;2024-01-27T12:39:43;1.67;;;1.58;;
85461;SDS011;75865;42.672;23.360;2024-01-27T12:42:11;1.92;;;1.40;;
85461;SDS011;75865;42.672;23.360;2024-01-27T12:44:38;2.58;;;1.33;;
85461;SDS011;75865;42.672;23.360;2024-01-27T12:47:06;2.45;;;1.60;;
85461;SDS011;75865;42.672;23.360;2024-01-27T12:49:33;1.52;;;1.00;;
85461;SDS011;75865;42.672;23.360;2024-01-27T12:52:01;3.10;;;1.75;;
85461;SDS011;75865;42.672;23.360;2024-01-27T12:54:27;1.40;;;1.30;;
85461;SDS011;75865;42.672;23.360;2024-01-27T12:56:55;2.80;;;1.40;;
85461;SDS011;75865;42.672;23.360;2024-01-27T12:59:22;0.73;;;0.70;;
85461;SDS011;75865;42.672;23.360;2024-01-27T13:01:49;2.15;;;1.50;;
85461;SDS011;75865;42.672;23.360;2024-01-27T13:04:16;1.58;;;1.00;;
85461;SDS011;75865;42.672;23.360;2024-01-27T13:06:43;1.05;;;0.90;;
85461;SDS011;75865;42.672;23.360;2024-01-27T13:09:10;2.10;;;1.48;;
85461;SDS011;75865;42.672;23.360;2024-01-27T13:11:38;2.75;;;1.20;;
85461;SDS011;75865;42.672;23.360;2024-01-27T13:14:05;1.33;;;1.23;;
85461;SDS011;75865;42.672;23.360;2024-01-27T13:16:33;1.75;;;1.23;;
85461;SDS011;75865;42.672;23.360;2024-01-27T13:18:59;1.98;;;1.38;;
85461;SDS011;75865;42.672;23.360;2024-01-27T13:21:26;1.42;;;1.00;;
85461;SDS011;75865;42.672;23.360;2024-01-27T13:23:53;1.52;;;1.17;;
85461;SDS011;75865;42.672;23.360;2024-01-27T13:26:20;2.67;;;1.30;;
85461;SDS011;75865;42.672;23.360;2024-01-27T13:28:49;2.17;;;1.10;;
85461;SDS011;75865;42.672;23.360;2024-01-27T13:31:16;1.27;;;1.17;;
85461;SDS011;75865;42.672;23.360;2024-01-27T13:33:43;0.80;;;0.80;;
85461;SDS011;75865;42.672;23.360;2024-01-27T13:36:10;1.35;;;1.00;;
85461;SDS011;75865;42.672;23.360;2024-01-27T13:38:37;2.05;;;1.25;;
85461;SDS011;75865;42.672;23.360;2024-01-27T13:41:04;1.75;;;0.98;;
85461;SDS011;75865;42.672;23.360;2024-01-27T13:43:31;1.00;;;0.85;;
85461;SDS011;75865;42.672;23.360;2024-01-27T13:45:58;2.97;;;1.20;;
85461;SDS011;75865;42.672;23.360;2024-01-27T13:48:24;3.50;;;1.40;;
85461;SDS011;75865;42.672;23.360;2024-01-27T13:50:52;1.75;;;1.33;;
85461;SDS011;75865;42.672;23.360;2024-01-27T13:53:19;1.38;;;1.15;;
85461;SDS011;75865;42.672;23.360;2024-01-27T13:55:47;1.58;;;1.15;;
85461;SDS011;75865;42.672;23.360;2024-01-27T13:58:14;1.17;;;0.98;;
85461;SDS011;75865;42.672;23.360;2024-01-27T14:00:41;1.30;;;0.88;;
85461;SDS011;75865;42.672;23.360;2024-01-27T14:03:08;2.45;;;1.23;;
85461;SDS011;75865;42.672;23.360;2024-01-27T14:05:35;0.88;;;0.77;;
85461;SDS011;75865;42.672;23.360;2024-01-27T14:08:04;1.83;;;0.98;;
85461;SDS011;75865;42.672;23.360;2024-01-27T14:10:33;1.42;;;0.90;;
85461;SDS011;75865;42.672;23.360;2024-01-27T14:13:01;2.00;;;1.20;;
85461;SDS011;75865;42.672;23.360;2024-01-27T14:15:35;1.58;;;0.88;;
85461;SDS011;75865;42.672;23.360;2024-01-27T14:18:03;1.35;;;0.70;;
85461;SDS011;75865;42.672;23.360;2024-01-27T14:20:32;1.55;;;1.00;;
85461;SDS011;75865;42.672;23.360;2024-01-27T14:23:04;1.17;;;0.63;;
85461;SDS011;75865;42.672;23.360;2024-01-27T14:25:31;2.13;;;1.02;;
85461;SDS011;75865;42.672;23.360;2024-01-27T14:27:57;1.75;;;1.17;;
85461;SDS011;75865;42.672;23.360;2024-01-27T14:30:24;1.38;;;0.77;;
85461;SDS011;75865;42.672;23.360;2024-01-27T14:32:51;1.20;;;0.70;;
85461;SDS011;75865;42.672;23.360;2024-01-27T14:35:18;2.38;;;1.13;;
85461;SDS011;75865;42.672;23.360;2024-01-27T14:37:45;2.78;;;0.88;;
85461;SDS011;75865;42.672;23.360;2024-01-27T14:40:12;2.45;;;1.33;;